sensor_id;sensor_type;location;lat;lon;timestamp;pressure;altitude;pressure_sealevel;temperature;humidity
59951;BME280;45812;53.540;9.774;2023-02-19T00:01:19;101478.41;;;5.38;100.00
59951;BME280;45812;53.540;9.774;2023-02-19T00:03:49;101477.50;;;5.39;100.00
59951;BME280;45812;53.540;9.774;2023-02-19T00:06:16;101474.63;;;5.42;100.00
59951;BME280;45812;53.540;9.774;2023-02-19T00:08:42;101475.47;;;5.43;100.00
59951;BME280;45812;53.540;9.774;2023-02-19T00:11:10;101473.56;;;5.45;100.00
59951;BME280;45812;53.540;9.774;2023-02-19T00:13:37;101475.69;;;5.40;100.00
59951;BME280;45812;53.540;9.774;2023-02-19T00:16:12;101472.88;;;5.30;100.00
59951;BME280;45812;53.540;9.774;2023-02-19T00:18:38;101475.50;;;5.30;100.00
59951;BME280;45812;53.540;9.774;2023-02-19T00:21:03;101474.06;;;5.26;100.00
59951;BME280;45812;53.540;9.774;2023-02-19T00:23:29;101479.56;;;5.23;100.00
59951;BME280;45812;53.540;9.774;2023-02-19T00:25:55;101476.94;;;5.23;100.00
59951;BME280;45812;53.540;9.774;2023-02-19T00:28:20;101478.72;;;5.23;100.00
59951;BME280;45812;53.540;9.774;2023-02-19T00:30:47;101476.41;;;5.18;100.00
59951;BME280;45812;53.540;9.774;2023-02-19T00:33:12;101465.72;;;5.20;100.00
59951;BME280;45812;53.540;9.774;2023-02-19T00:35:37;101469.75;;;5.25;100.00
59951;BME280;45812;53.540;9.774;2023-02-19T00:38:03;101476.69;;;5.26;100.00
59951;BME280;45812;53.540;9.774;2023-02-19T00:40:29;101487.25;;;5.26;100.00
59951;BME280;45812;53.540;9.774;2023-02-19T00:42:54;101489.66;;;5.29;100.00
59951;BME280;45812;53.540;9.774;2023-02-19T00:45:19;101491.97;;;5.34;100.00
59951;BME280;45812;53.540;9.774;2023-02-19T00:47:44;101485.97;;;5.32;100.00
59951;BME280;45812;53.540;9.774;2023-02-19T00:50:10;101487.53;;;5.34;100.00
59951;BME280;45812;53.540;9.774;2023-02-19T00:52:35;101488.47;;;5.33;100.00
59951;BME280;45812;53.540;9.774;2023-02-19T00:55:01;101491.97;;;5.34;100.00
59951;BME280;45812;53.540;9.774;2023-02-19T00:57:26;101492.81;;;5.34;100.00
59951;BME280;45812;53.540;9.774;2023-02-19T00:59:51;101494.59;;;5.34;100.00
59951;BME280;45812;53.540;9.774;2023-02-19T01:02:16;101488.25;;;5.36;100.00
59951;BME280;45812;53.540;9.774;2023-02-19T01:04:42;101498.69;;;5.38;100.00
59951;BME280;45812;53.540;9.774;2023-02-19T01:07:07;101496.91;;;5.38;100.00
59951;BME280;45812;53.540;9.774;2023-02-19T01:09:32;101498.81;;;5.36;100.00
59951;BME280;45812;53.540;9.774;2023-02-19T01:11:57;101492.56;;;5.37;100.00
59951;BME280;45812;53.540;9.774;2023-02-19T01:14:23;101496.19;;;5.36;100.00
59951;BME280;45812;53.540;9.774;2023-02-19T01:16:48;101497.47;;;5.31;100.00
59951;BME280;45812;53.540;9.774;2023-02-19T01:19:13;101497.59;;;5.29;100.00
59951;BME280;45812;53.540;9.774;2023-02-19T01:21:39;101495.53;;;5.22;100.00
59951;BME280;45812;53.540;9.774;2023-02-19T01:24:04;101497.75;;;5.15;100.00
59951;BME280;45812;53.540;9.774;2023-02-19T01:26:32;101494.16;;;5.16;100.00
59951;BME280;45812;53.540;9.774;2023-02-19T01:29:01;101493.91;;;5.19;100.00
59951;BME280;45812;53.540;9.774;2023-02-19T01:31:27;101491.63;;;5.14;100.00
59951;BME280;45812;53.540;9.774;2023-02-19T01:33:55;101488.75;;;5.17;100.00
59951;BME280;45812;53.540;9.774;2023-02-19T01:36:21;101482.75;;;5.15;100.00
59951;BME280;45812;53.540;9.774;2023-02-19T01:38:46;101487.41;;;5.12;100.00
59951;BME280;45812;53.540;9.774;2023-02-19T01:41:16;101481.50;;;5.08;100.00
59951;BME280;45812;53.540;9.774;2023-02-19T01:44:02;101487.41;;;5.12;100.00
59951;BME280;45812;53.540;9.774;2023-02-19T01:46:30;101485.50;;;5.14;100.00
59951;BME280;45812;53.540;9.774;2023-02-19T01:48:59;101486.34;;;5.14;100.00
59951;BME280;45812;53.540;9.774;2023-02-19T01:51:26;101483.34;;;5.19;100.00
59951;BME280;45812;53.540;9.774;2023-02-19T01:53:55;101482.41;;;5.20;100.00
59951;BME280;45812;53.540;9.774;2023-02-19T01:56:21;101477.88;;;5.22;100.00
59951;BME280;45812;53.540;9.774;2023-02-19T01:58:48;101484.84;;;5.23;100.00
59951;BME280;45812;53.540;9.774;2023-02-19T02:01:14;101483.06;;;5.24;100.00
59951;BME280;45812;53.540;9.774;2023-02-19T02:03:40;101476.94;;;5.23;100.00
59951;BME280;45812;53.540;9.774;2023-02-19T02:06:23;101479.00;;;5.31;100.00
59951;BME280;45812;53.540;9.774;2023-02-19T02:08:51;101478.16;;;5.30;100.00
59951;BME280;45812;53.540;9.774;2023-02-19T02:11:49;101477.31;;;5.30;100.00
59951;BME280;45812;53.540;9.774;2023-02-19T02:14:17;101479.84;;;5.31;100.00
59951;BME280;45812;53.540;9.774;2023-02-19T02:17:14;101478.03;;;5.32;100.00
59951;BME280;45812;53.540;9.774;2023-02-19T02:20:12;101483.09;;;5.35;100.00
59951;BME280;45812;53.540;9.774;2023-02-19T02:22:51;101485.13;;;5.31;100.00
59951;BME280;45812;53.540;9.774;2023-02-19T02:25:44;101479.84;;;5.31;100.00
59951;BME280;45812;53.540;9.774;2023-02-19T02:29:03;101485.34;;;5.28;100.00
59951;BME280;45812;53.540;9.774;2023-02-19T02:31:34;101489.41;;;5.21;100.00
59951;BME280;45812;53.540;9.774;2023-02-19T02:34:06;101487.78;;;5.18;100.00
59951;BME280;45812;53.540;9.774;2023-02-19T02:36:37;101495.56;;;5.09;100.00
59951;BME280;45812;53.540;9.774;2023-02-19T02:39:06;101493.25;;;5.04;100.00
59951;BME280;45812;53.540;9.774;2023-02-19T02:41:32;101494.94;;;5.05;100.00
59951;BME280;45812;53.540;9.774;2023-02-19T02:43:58;101488.81;;;5.05;100.00
59951;BME280;45812;53.540;9.774;2023-02-19T02:46:27;101493.13;;;5.06;100.00
59951;BME280;45812;53.540;9.774;2023-02-19T02:48:56;101489.66;;;5.05;100.00
59951;BME280;45812;53.540;9.774;2023-02-19T02:51:28;101489.78;;;5.04;100.00
59951;BME280;45812;53.540;9.774;2023-02-19T02:54:31;101491.66;;;5.02;100.00
59951;BME280;45812;53.540;9.774;2023-02-19T02:57:17;101484.81;;;4.99;100.00
59951;BME280;45812;53.540;9.774;2023-02-19T02:59:44;101490.19;;;4.98;100.00
59951;BME280;45812;53.540;9.774;2023-02-19T03:02:20;101490.91;;;5.00;100.00
59951;BME280;45812;53.540;9.774;2023-02-19T03:05:03;101499.06;;;4.97;100.00
59951;BME280;45812;53.540;9.774;2023-02-19T03:07:54;101503.09;;;4.90;100.00
59951;BME280;45812;53.540;9.774;2023-02-19T03:10:22;101503.81;;;4.92;100.00
59951;BME280;45812;53.540;9.774;2023-02-19T03:12:50;101505.63;;;4.91;100.00
59951;BME280;45812;53.540;9.774;2023-02-19T03:15:41;101506.69;;;4.89;100.00
59951;BME280;45812;53.540;9.774;2023-02-19T03:18:28;101498.25;;;4.83;100.00
59951;BME280;45812;53.540;9.774;2023-02-19T03:21:14;101515.78;;;4.84;100.00
59951;BME280;45812;53.540;9.774;2023-02-19T03:23:41;101510.50;;;4.84;100.00
59951;BME280;45812;53.540;9.774;2023-02-19T03:26:28;101514.09;;;4.83;100.00
59951;BME280;45812;53.540;9.774;2023-02-19T03:28:56;101518.50;;;4.83;100.00
59951;BME280;45812;53.540;9.774;2023-02-19T03:31:42;101523.03;;;4.81;100.00
59951;BME280;45812;53.540;9.774;2023-02-19T03:34:11;101522.94;;;4.82;100.00
59951;BME280;45812;53.540;9.774;2023-02-19T03:36:45;101530.31;;;4.77;100.00
59951;BME280;45812;53.540;9.774;2023-02-19T03:39:14;101526.50;;;4.81;100.00
59951;BME280;45812;53.540;9.774;2023-02-19T03:44:51;101529.69;;;4.86;100.00
59951;BME280;45812;53.540;9.774;2023-02-19T03:47:29;101539.28;;;4.88;100.00
59951;BME280;45812;53.540;9.774;2023-02-19T03:50:09;101535.09;;;4.85;100.00
59951;BME280;45812;53.540;9.774;2023-02-19T03:53:18;101533.06;;;4.89;100.00
59951;BME280;45812;53.540;9.774;2023-02-19T03:58:27;101529.69;;;4.86;100.00
59951;BME280;45812;53.540;9.774;2023-02-19T04:00:56;101536.53;;;4.89;100.00
59951;BME280;45812;53.540;9.774;2023-02-19T04:03:34;101531.59;;;4.84;100.00
59951;BME280;45812;53.540;9.774;2023-02-19T04:06:04;101544.25;;;4.79;100.00
59951;BME280;45812;53.540;9.774;2023-02-19T04:08:34;101542.88;;;4.74;100.00
59951;BME280;45812;53.540;9.774;2023-02-19T04:11:01;101545.75;;;4.71;100.00
59951;BME280;45812;53.540;9.774;2023-02-19T04:13:35;101550.59;;;4.64;100.00
59951;BME280;45812;53.540;9.774;2023-02-19T04:16:06;101556.91;;;4.62;100.00
59951;BME280;45812;53.540;9.774;2023-02-19T04:18:36;101566.84;;;4.58;100.00
59951;BME280;45812;53.540;9.774;2023-02-19T04:21:04;101568.00;;;4.54;100.00
59951;BME280;45812;53.540;9.774;2023-02-19T04:23:35;101576.66;;;4.56;100.00
59951;BME280;45812;53.540;9.774;2023-02-19T04:26:02;101579.06;;;4.59;100.00
59951;BME280;45812;53.540;9.774;2023-02-19T04:28:28;101587.19;;;4.56;100.00
59951;BME280;45812;53.540;9.774;2023-02-19T04:30:54;101597.75;;;4.56;100.00
59951;BME280;45812;53.540;9.774;2023-02-19T04:33:20;101611.97;;;4.53;100.00
59951;BME280;45812;53.540;9.774;2023-02-19T04:35:46;101614.19;;;4.47;100.00
59951;BME280;45812;53.540;9.774;2023-02-19T04:38:11;101617.75;;;4.46;100.00
59951;BME280;45812;53.540;9.774;2023-02-19T04:40:37;101608.38;;;4.42;100.00
59951;BME280;45812;53.540;9.774;2023-02-19T04:43:03;101618.47;;;4.35;100.00
59951;BME280;45812;53.540;9.774;2023-02-19T04:45:28;101623.34;;;4.29;100.00
59951;BME280;45812;53.540;9.774;2023-02-19T04:47:53;101619.41;;;4.21;100.00
59951;BME280;45812;53.540;9.774;2023-02-19T04:50:18;101622.25;;;4.18;100.00
59951;BME280;45812;53.540;9.774;2023-02-19T04:52:44;101619.28;;;4.10;100.00
59951;BME280;45812;53.540;9.774;2023-02-19T04:55:09;101620.22;;;4.09;100.00
59951;BME280;45812;53.540;9.774;2023-02-19T04:57:35;101625.41;;;4.11;100.00
59951;BME280;45812;53.540;9.774;2023-02-19T05:00:00;101627.06;;;4.12;100.00
59951;BME280;45812;53.540;9.774;2023-02-19T05:02:26;101631.50;;;4.11;100.00
59951;BME280;45812;53.540;9.774;2023-02-19T05:04:51;101631.50;;;4.11;100.00
59951;BME280;45812;53.540;9.774;2023-02-19T05:07:16;101634.13;;;4.11;100.00
59951;BME280;45812;53.540;9.774;2023-02-19T05:09:41;101635.16;;;4.09;100.00
59951;BME280;45812;53.540;9.774;2023-02-19T05:12:07;101633.56;;;4.06;100.00
59951;BME280;45812;53.540;9.774;2023-02-19T05:14:32;101635.47;;;4.04;100.00
59951;BME280;45812;53.540;9.774;2023-02-19T05:16:57;101629.75;;;3.98;100.00
59951;BME280;45812;53.540;9.774;2023-02-19T05:19:22;101634.41;;;3.94;100.00
59951;BME280;45812;53.540;9.774;2023-02-19T05:21:48;101646.25;;;3.87;100.00
59951;BME280;45812;53.540;9.774;2023-02-19T05:24:13;101647.91;;;3.75;100.00
59951;BME280;45812;53.540;9.774;2023-02-19T05:26:38;101652.34;;;3.60;100.00
59951;BME280;45812;53.540;9.774;2023-02-19T05:29:04;101653.09;;;3.48;100.00
59951;BME280;45812;53.540;9.774;2023-02-19T05:31:29;101653.91;;;3.36;100.00
59951;BME280;45812;53.540;9.774;2023-02-19T05:33:55;101662.34;;;3.27;100.00
59951;BME280;45812;53.540;9.774;2023-02-19T05:36:21;101669.28;;;3.14;100.00
59951;BME280;45812;53.540;9.774;2023-02-19T05:38:46;101673.25;;;3.07;100.00
59951;BME280;45812;53.540;9.774;2023-02-19T05:41:14;101670.25;;;2.98;100.00
59951;BME280;45812;53.540;9.774;2023-02-19T05:43:40;101673.41;;;2.89;100.00
59951;BME280;45812;53.540;9.774;2023-02-19T05:46:07;101668.63;;;2.82;100.00
59951;BME280;45812;53.540;9.774;2023-02-19T05:48:33;101671.50;;;2.77;100.00
59951;BME280;45812;53.540;9.774;2023-02-19T05:51:03;101675.44;;;2.70;100.00
59951;BME280;45812;53.540;9.774;2023-02-19T05:53:29;101682.75;;;2.65;100.00
59951;BME280;45812;53.540;9.774;2023-02-19T05:55:54;101686.31;;;2.64;100.00
59951;BME280;45812;53.540;9.774;2023-02-19T05:58:20;101697.09;;;2.59;100.00
59951;BME280;45812;53.540;9.774;2023-02-19T06:00:45;101691.81;;;2.59;100.00
59951;BME280;45812;53.540;9.774;2023-02-19T06:03:10;101696.00;;;2.63;100.00
59951;BME280;45812;53.540;9.774;2023-02-19T06:05:36;101700.03;;;2.69;100.00
59951;BME280;45812;53.540;9.774;2023-02-19T06:08:02;101701.53;;;2.73;100.00
59951;BME280;45812;53.540;9.774;2023-02-19T06:10:27;101717.88;;;2.78;100.00
59951;BME280;45812;53.540;9.774;2023-02-19T06:12:52;101723.84;;;2.82;100.00
59951;BME280;45812;53.540;9.774;2023-02-19T06:15:18;101722.91;;;2.83;100.00
59951;BME280;45812;53.540;9.774;2023-02-19T06:17:44;101733.41;;;2.83;100.00
59951;BME280;45812;53.540;9.774;2023-02-19T06:20:10;101741.53;;;2.78;100.00
59951;BME280;45812;53.540;9.774;2023-02-19T06:22:35;101756.00;;;2.71;100.00
59951;BME280;45812;53.540;9.774;2023-02-19T06:25:01;101759.75;;;2.67;100.00
59951;BME280;45812;53.540;9.774;2023-02-19T06:27:26;101760.84;;;2.63;100.00
59951;BME280;45812;53.540;9.774;2023-02-19T06:29:52;101762.97;;;2.56;100.00
59951;BME280;45812;53.540;9.774;2023-02-19T06:32:17;101778.00;;;2.54;100.00
59951;BME280;45812;53.540;9.774;2023-02-19T06:34:42;101782.56;;;2.51;100.00
59951;BME280;45812;53.540;9.774;2023-02-19T06:37:08;101783.88;;;2.43;100.00
59951;BME280;45812;53.540;9.774;2023-02-19T06:39:33;101783.16;;;2.40;100.00
59951;BME280;45812;53.540;9.774;2023-02-19T06:41:58;101787.84;;;2.35;100.00
59951;BME280;45812;53.540;9.774;2023-02-19T06:44:23;101796.75;;;2.32;100.00
59951;BME280;45812;53.540;9.774;2023-02-19T06:46:49;101801.50;;;2.26;100.00
59951;BME280;45812;53.540;9.774;2023-02-19T06:49:14;101803.38;;;2.24;100.00
59951;BME280;45812;53.540;9.774;2023-02-19T06:51:40;101804.22;;;2.24;100.00
59951;BME280;45812;53.540;9.774;2023-02-19T06:54:05;101806.00;;;2.24;100.00
59951;BME280;45812;53.540;9.774;2023-02-19T06:56:33;101817.56;;;2.20;100.00
59951;BME280;45812;53.540;9.774;2023-02-19T06:59:03;101818.28;;;2.23;100.00
59951;BME280;45812;53.540;9.774;2023-02-19T07:01:30;101818.19;;;2.25;100.00
59951;BME280;45812;53.540;9.774;2023-02-19T07:03:56;101823.38;;;2.26;100.00
59951;BME280;45812;53.540;9.774;2023-02-19T07:06:23;101824.88;;;2.30;100.00
59951;BME280;45812;53.540;9.774;2023-02-19T07:08:49;101837.09;;;2.31;100.00
59951;BME280;45812;53.540;9.774;2023-02-19T07:11:15;101839.53;;;2.34;100.00
59951;BME280;45812;53.540;9.774;2023-02-19T07:13:42;101850.50;;;2.42;100.00
59951;BME280;45812;53.540;9.774;2023-02-19T07:16:08;101852.19;;;2.43;100.00
59951;BME280;45812;53.540;9.774;2023-02-19T07:18:35;101857.69;;;2.55;100.00
59951;BME280;45812;53.540;9.774;2023-02-19T07:21:02;101869.31;;;2.66;100.00
59951;BME280;45812;53.540;9.774;2023-02-19T07:23:27;101869.53;;;2.78;100.00
59951;BME280;45812;53.540;9.774;2023-02-19T07:25:53;101873.84;;;2.94;100.00
59951;BME280;45812;53.540;9.774;2023-02-19T07:28:18;101884.06;;;3.15;100.00
59951;BME280;45812;53.540;9.774;2023-02-19T07:30:43;101886.00;;;3.27;100.00
59951;BME280;45812;53.540;9.774;2023-02-19T07:33:09;101888.84;;;3.38;100.00
59951;BME280;45812;53.540;9.774;2023-02-19T07:35:34;101899.19;;;3.41;100.00
59951;BME280;45812;53.540;9.774;2023-02-19T07:38:00;101894.22;;;3.51;100.00
59951;BME280;45812;53.540;9.774;2023-02-19T07:40:25;101898.50;;;3.53;100.00
59951;BME280;45812;53.540;9.774;2023-02-19T07:42:50;101903.16;;;3.48;100.00
59951;BME280;45812;53.540;9.774;2023-02-19T07:45:16;101909.34;;;3.47;100.00
59951;BME280;45812;53.540;9.774;2023-02-19T07:47:41;101916.50;;;3.45;100.00
59951;BME280;45812;53.540;9.774;2023-02-19T07:50:07;101922.13;;;3.39;100.00
59951;BME280;45812;53.540;9.774;2023-02-19T07:52:32;101922.66;;;3.30;100.00
59951;BME280;45812;53.540;9.774;2023-02-19T07:54:58;101934.47;;;3.23;100.00
59951;BME280;45812;53.540;9.774;2023-02-19T07:57:23;101932.03;;;3.20;100.00
59951;BME280;45812;53.540;9.774;2023-02-19T07:59:48;101938.72;;;3.10;100.00
59951;BME280;45812;53.540;9.774;2023-02-19T08:02:15;101933.28;;;3.13;100.00
59951;BME280;45812;53.540;9.774;2023-02-19T08:04:59;101934.00;;;3.00;100.00
59951;BME280;45812;53.540;9.774;2023-02-19T08:07:30;101943.06;;;3.11;100.00
59951;BME280;45812;53.540;9.774;2023-02-19T08:09:55;101942.03;;;3.13;100.00
59951;BME280;45812;53.540;9.774;2023-02-19T08:12:40;101954.41;;;3.27;100.00
59951;BME280;45812;53.540;9.774;2023-02-19T08:15:24;101944.06;;;3.24;100.00
59951;BME280;45812;53.540;9.774;2023-02-19T08:17:49;101947.78;;;3.36;100.00
59951;BME280;45812;53.540;9.774;2023-02-19T08:20:15;101940.75;;;3.36;100.00
59951;BME280;45812;53.540;9.774;2023-02-19T08:22:40;101942.72;;;3.47;100.00
59951;BME280;45812;53.540;9.774;2023-02-19T08:25:06;101944.66;;;3.59;100.00
59951;BME280;45812;53.540;9.774;2023-02-19T08:27:31;101943.66;;;3.76;100.00
59951;BME280;45812;53.540;9.774;2023-02-19T08:29:56;101951.00;;;3.85;100.00
59951;BME280;45812;53.540;9.774;2023-02-19T08:32:21;101952.38;;;3.92;100.00
59951;BME280;45812;53.540;9.774;2023-02-19T08:34:47;101961.25;;;3.89;100.00
59951;BME280;45812;53.540;9.774;2023-02-19T08:37:12;101965.44;;;3.93;100.00
59951;BME280;45812;53.540;9.774;2023-02-19T08:39:37;101969.75;;;4.09;100.00
59951;BME280;45812;53.540;9.774;2023-02-19T08:42:02;101982.69;;;4.13;100.00
59951;BME280;45812;53.540;9.774;2023-02-19T08:44:28;101973.91;;;4.27;100.00
59951;BME280;45812;53.540;9.774;2023-02-19T08:46:53;101981.94;;;4.40;100.00
59951;BME280;45812;53.540;9.774;2023-02-19T08:49:19;101980.91;;;4.28;100.00
59951;BME280;45812;53.540;9.774;2023-02-19T08:51:44;101987.13;;;4.41;100.00
59951;BME280;45812;53.540;9.774;2023-02-19T08:54:09;101991.09;;;4.48;100.00
59951;BME280;45812;53.540;9.774;2023-02-19T08:56:34;101996.44;;;4.61;100.00
59951;BME280;45812;53.540;9.774;2023-02-19T08:58:59;102008.22;;;4.55;100.00
59951;BME280;45812;53.540;9.774;2023-02-19T09:01:25;102005.66;;;4.40;100.00
59951;BME280;45812;53.540;9.774;2023-02-19T09:03:51;102019.97;;;4.64;100.00
59951;BME280;45812;53.540;9.774;2023-02-19T09:06:18;102017.50;;;5.45;100.00
59951;BME280;45812;53.540;9.774;2023-02-19T09:08:44;102014.75;;;6.38;100.00
59951;BME280;45812;53.540;9.774;2023-02-19T09:11:10;102025.66;;;7.45;100.00
59951;BME280;45812;53.540;9.774;2023-02-19T09:13:35;102024.34;;;8.21;98.81
59951;BME280;45812;53.540;9.774;2023-02-19T09:16:04;102034.56;;;8.83;93.63
59951;BME280;45812;53.540;9.774;2023-02-19T09:18:29;102034.28;;;9.31;89.61
59951;BME280;45812;53.540;9.774;2023-02-19T09:20:58;102036.34;;;9.70;84.22
59951;BME280;45812;53.540;9.774;2023-02-19T09:23:24;102030.47;;;9.88;81.77
59951;BME280;45812;53.540;9.774;2023-02-19T09:25:56;102042.56;;;10.01;80.27
59951;BME280;45812;53.540;9.774;2023-02-19T09:28:21;102047.38;;;9.87;79.22
59951;BME280;45812;53.540;9.774;2023-02-19T09:30:46;102046.28;;;9.89;80.74
59951;BME280;45812;53.540;9.774;2023-02-19T09:33:11;102056.66;;;10.24;80.37
59951;BME280;45812;53.540;9.774;2023-02-19T09:35:38;102061.53;;;10.71;76.36
59951;BME280;45812;53.540;9.774;2023-02-19T09:38:04;102066.03;;;11.10;72.41
59951;BME280;45812;53.540;9.774;2023-02-19T09:40:29;102066.00;;;11.41;72.85
59951;BME280;45812;53.540;9.774;2023-02-19T09:42:55;102065.34;;;11.77;72.50
59951;BME280;45812;53.540;9.774;2023-02-19T09:45:22;102073.78;;;12.21;68.71
59951;BME280;45812;53.540;9.774;2023-02-19T09:47:52;102075.94;;;12.74;65.77
59951;BME280;45812;53.540;9.774;2023-02-19T09:50:21;102076.75;;;12.84;62.60
59951;BME280;45812;53.540;9.774;2023-02-19T09:52:53;102082.38;;;12.81;63.17
59951;BME280;45812;53.540;9.774;2023-02-19T09:55:30;102093.50;;;12.77;60.54
59951;BME280;45812;53.540;9.774;2023-02-19T09:58:02;102101.78;;;12.83;63.45
59951;BME280;45812;53.540;9.774;2023-02-19T10:00:33;102108.31;;;13.08;61.39
59951;BME280;45812;53.540;9.774;2023-02-19T10:03:09;102106.72;;;13.15;60.60
59951;BME280;45812;53.540;9.774;2023-02-19T10:05:37;102121.22;;;13.22;61.48
59951;BME280;45812;53.540;9.774;2023-02-19T10:08:06;102128.69;;;13.09;58.75
59951;BME280;45812;53.540;9.774;2023-02-19T10:10:35;102136.66;;;12.82;61.26
59951;BME280;45812;53.540;9.774;2023-02-19T10:13:20;102133.63;;;12.57;62.73
59951;BME280;45812;53.540;9.774;2023-02-19T10:15:49;102128.72;;;12.43;63.41
59951;BME280;45812;53.540;9.774;2023-02-19T10:18:16;102133.56;;;12.77;60.82
59951;BME280;45812;53.540;9.774;2023-02-19T10:20:42;102131.97;;;13.03;60.84
59951;BME280;45812;53.540;9.774;2023-02-19T10:23:10;102143.34;;;13.70;54.79
59951;BME280;45812;53.540;9.774;2023-02-19T10:25:40;102136.50;;;14.03;54.04
59951;BME280;45812;53.540;9.774;2023-02-19T10:28:09;102143.00;;;13.82;51.82
59951;BME280;45812;53.540;9.774;2023-02-19T10:30:37;102151.72;;;13.84;52.71
59951;BME280;45812;53.540;9.774;2023-02-19T10:33:14;102148.38;;;14.18;51.48
59951;BME280;45812;53.540;9.774;2023-02-19T10:35:52;102141.59;;;14.67;47.72
59951;BME280;45812;53.540;9.774;2023-02-19T10:38:19;102153.50;;;14.91;48.10
59951;BME280;45812;53.540;9.774;2023-02-19T10:40:46;102150.53;;;15.02;46.77
59951;BME280;45812;53.540;9.774;2023-02-19T10:43:21;102154.94;;;15.11;48.35
59951;BME280;45812;53.540;9.774;2023-02-19T10:45:55;102161.69;;;15.57;45.63
59951;BME280;45812;53.540;9.774;2023-02-19T10:48:24;102152.03;;;14.52;48.12
59951;BME280;45812;53.540;9.774;2023-02-19T10:51:07;102169.91;;;15.22;46.52
59951;BME280;45812;53.540;9.774;2023-02-19T10:53:45;102167.59;;;16.27;45.16
59951;BME280;45812;53.540;9.774;2023-02-19T10:56:29;102179.00;;;17.03;41.37
59951;BME280;45812;53.540;9.774;2023-02-19T10:59:13;102181.03;;;16.60;40.58
59951;BME280;45812;53.540;9.774;2023-02-19T11:01:58;102187.72;;;16.15;42.53
59951;BME280;45812;53.540;9.774;2023-02-19T11:04:26;102186.66;;;15.92;41.11
59951;BME280;45812;53.540;9.774;2023-02-19T11:06:52;102195.88;;;15.21;42.48
59951;BME280;45812;53.540;9.774;2023-02-19T11:09:22;102195.72;;;15.99;40.86
59951;BME280;45812;53.540;9.774;2023-02-19T11:11:50;102199.69;;;16.61;38.96
59951;BME280;45812;53.540;9.774;2023-02-19T11:14:19;102189.78;;;16.86;37.98
59951;BME280;45812;53.540;9.774;2023-02-19T11:16:47;102194.34;;;16.70;40.34
59951;BME280;45812;53.540;9.774;2023-02-19T11:21:49;102196.53;;;17.46;37.94
59951;BME280;45812;53.540;9.774;2023-02-19T11:24:35;102196.34;;;17.95;37.92
59951;BME280;45812;53.540;9.774;2023-02-19T11:27:04;102194.66;;;17.94;36.63
59951;BME280;45812;53.540;9.774;2023-02-19T11:29:30;102198.22;;;18.40;35.46
59951;BME280;45812;53.540;9.774;2023-02-19T11:34:44;102201.34;;;18.29;33.75
59951;BME280;45812;53.540;9.774;2023-02-19T11:37:19;102207.66;;;19.19;33.29
59951;BME280;45812;53.540;9.774;2023-02-19T11:39:49;102209.44;;;18.74;32.63
59951;BME280;45812;53.540;9.774;2023-02-19T11:42:29;102210.63;;;19.10;31.54
59951;BME280;45812;53.540;9.774;2023-02-19T11:48:21;102210.81;;;20.18;30.78
59951;BME280;45812;53.540;9.774;2023-02-19T11:50:59;102206.53;;;21.22;29.80
59951;BME280;45812;53.540;9.774;2023-02-19T11:53:30;102201.63;;;22.81;28.29
59951;BME280;45812;53.540;9.774;2023-02-19T11:56:20;102204.78;;;23.75;26.88
59951;BME280;45812;53.540;9.774;2023-02-19T12:02:11;102192.50;;;23.53;26.15
59951;BME280;45812;53.540;9.774;2023-02-19T12:05:17;102195.09;;;22.16;27.48
59951;BME280;45812;53.540;9.774;2023-02-19T12:08:13;102186.06;;;22.02;27.32
59951;BME280;45812;53.540;9.774;2023-02-19T12:19:22;102199.41;;;22.03;27.55
59951;BME280;45812;53.540;9.774;2023-02-19T12:22:08;102202.66;;;22.66;27.35
59951;BME280;45812;53.540;9.774;2023-02-19T12:24:55;102201.25;;;22.90;25.94
59951;BME280;45812;53.540;9.774;2023-02-19T12:27:44;102211.59;;;22.14;26.66
59951;BME280;45812;53.540;9.774;2023-02-19T12:30:32;102220.78;;;22.13;26.95
59951;BME280;45812;53.540;9.774;2023-02-19T12:36:34;102222.03;;;22.30;26.28
59951;BME280;45812;53.540;9.774;2023-02-19T12:39:09;102232.09;;;22.43;26.14
59951;BME280;45812;53.540;9.774;2023-02-19T12:41:59;102223.94;;;22.50;26.23
59951;BME280;45812;53.540;9.774;2023-02-19T12:45:09;102224.63;;;22.98;26.19
59951;BME280;45812;53.540;9.774;2023-02-19T12:47:40;102214.84;;;22.03;26.04
59951;BME280;45812;53.540;9.774;2023-02-19T12:50:19;102217.28;;;21.85;27.03
59951;BME280;45812;53.540;9.774;2023-02-19T12:52:49;102220.53;;;22.08;26.54
59951;BME280;45812;53.540;9.774;2023-02-19T12:55:26;102217.50;;;21.90;27.31
59951;BME280;45812;53.540;9.774;2023-02-19T12:57:53;102211.66;;;22.74;25.71
59951;BME280;45812;53.540;9.774;2023-02-19T13:00:28;102197.44;;;23.05;24.83
59951;BME280;45812;53.540;9.774;2023-02-19T13:05:39;102208.31;;;23.11;25.62
59951;BME280;45812;53.540;9.774;2023-02-19T13:08:14;102205.00;;;22.89;24.82
59951;BME280;45812;53.540;9.774;2023-02-19T13:10:54;102202.34;;;22.02;26.21
59951;BME280;45812;53.540;9.774;2023-02-19T13:13:27;102195.75;;;22.24;26.65
59951;BME280;45812;53.540;9.774;2023-02-19T13:15:59;102199.41;;;21.97;26.34
59951;BME280;45812;53.540;9.774;2023-02-19T13:18:34;102195.94;;;20.99;26.77
59951;BME280;45812;53.540;9.774;2023-02-19T13:21:04;102204.78;;;19.65;28.32
59951;BME280;45812;53.540;9.774;2023-02-19T13:23:40;102190.66;;;18.58;30.33
59951;BME280;45812;53.540;9.774;2023-02-19T13:26:31;102182.50;;;17.98;31.07
59951;BME280;45812;53.540;9.774;2023-02-19T13:29:45;102191.34;;;18.60;30.44
59951;BME280;45812;53.540;9.774;2023-02-19T13:32:33;102204.06;;;18.89;29.90
59951;BME280;45812;53.540;9.774;2023-02-19T13:37:40;102196.31;;;19.39;29.95
59951;BME280;45812;53.540;9.774;2023-02-19T13:40:20;102181.66;;;19.33;30.27
59951;BME280;45812;53.540;9.774;2023-02-19T13:42:53;102179.81;;;19.33;30.06